Deadwood, Oregon
Current Conditions -  °F | °C
As of 6:54 PM on Friday 21 Nov 2014 (Local Time) from KEUG Reporting Station
Moderate Rain Moderate Rain  
Wind Chill: 54°   Ceiling: 2700
Heat Index: 54°   Visibility: 5mi
Dew Point: 52°   Wind: 15mph
Humidity: 93%   Direction: 190°S
Pressure: 29.59"   Gusts: NA
Location:  44.1°N, 123.76°W
Report Text: KEUG 220254Z 19013KT 5SM RA BR FEW023 OVC027 12/11 A2959 RMK AO2 SLP021 P0011 60014 T01220111 56010
Loading
Personal Weather Stations






























Interactive Weather Map New forecast layout! Learn more

10-Day Weather Forecast

Advertisements
Track Severe Weather on mobile